sensor_id;sensor_type;location;lat;lon;timestamp;pressure;altitude;pressure_sealevel;temperature;humidity
79129;BME280;68529;43.286;23.360;2023-07-13T00:00:17;99110.84;;;26.10;49.36
79129;BME280;68529;43.286;23.360;2023-07-13T00:02:43;99104.38;;;26.02;49.53
79129;BME280;68529;43.286;23.360;2023-07-13T00:05:09;99104.16;;;25.96;49.64
79129;BME280;68529;43.286;23.360;2023-07-13T00:07:35;99103.31;;;25.95;49.75
79129;BME280;68529;43.286;23.360;2023-07-13T00:10:01;99110.91;;;26.00;49.17
79129;BME280;68529;43.286;23.360;2023-07-13T00:12:31;99108.22;;;26.00;49.44
79129;BME280;68529;43.286;23.360;2023-07-13T00:14:58;99104.47;;;25.93;48.82
79129;BME280;68529;43.286;23.360;2023-07-13T00:17:25;99100.28;;;25.81;49.06
79129;BME280;68529;43.286;23.360;2023-07-13T00:19:52;99108.22;;;25.82;49.46
79129;BME280;68529;43.286;23.360;2023-07-13T00:22:18;99095.44;;;25.84;49.45
79129;BME280;68529;43.286;23.360;2023-07-13T00:24:44;99100.66;;;25.86;49.18
79129;BME280;68529;43.286;23.360;2023-07-13T00:27:10;99101.69;;;25.85;49.87
79129;BME280;68529;43.286;23.360;2023-07-13T00:29:37;99105.13;;;25.77;49.78
79129;BME280;68529;43.286;23.360;2023-07-13T00:32:04;99099.13;;;25.83;50.72
79129;BME280;68529;43.286;23.360;2023-07-13T00:34:29;99097.13;;;25.85;51.05
79129;BME280;68529;43.286;23.360;2023-07-13T00:36:55;99089.97;;;25.76;50.77
79129;BME280;68529;43.286;23.360;2023-07-13T00:39:21;99092.72;;;25.67;51.26
79129;BME280;68529;43.286;23.360;2023-07-13T00:41:46;99098.41;;;25.64;50.72
79129;BME280;68529;43.286;23.360;2023-07-13T00:44:16;99092.34;;;25.62;51.03
79129;BME280;68529;43.286;23.360;2023-07-13T00:46:42;99098.41;;;25.64;51.25
79129;BME280;68529;43.286;23.360;2023-07-13T00:49:10;99088.34;;;25.66;50.71
79129;BME280;68529;43.286;23.360;2023-07-13T00:51:44;99093.31;;;25.61;50.72
79129;BME280;68529;43.286;23.360;2023-07-13T00:54:14;99089.94;;;25.59;50.85
79129;BME280;68529;43.286;23.360;2023-07-13T00:56:42;99086.88;;;25.54;50.86
79129;BME280;68529;43.286;23.360;2023-07-13T00:59:10;99087.75;;;25.44;50.83
79129;BME280;68529;43.286;23.360;2023-07-13T01:01:36;99096.50;;;25.46;50.86
79129;BME280;68529;43.286;23.360;2023-07-13T01:04:03;99101.06;;;25.46;50.60
79129;BME280;68529;43.286;23.360;2023-07-13T01:06:28;99091.28;;;25.45;50.13
79129;BME280;68529;43.286;23.360;2023-07-13T01:08:55;99096.94;;;25.42;50.26
79129;BME280;68529;43.286;23.360;2023-07-13T01:11:22;99098.09;;;25.39;49.96
79129;BME280;68529;43.286;23.360;2023-07-13T01:13:48;99096.56;;;25.37;49.95
79129;BME280;68529;43.286;23.360;2023-07-13T01:16:24;99100.22;;;25.36;50.11
79129;BME280;68529;43.286;23.360;2023-07-13T01:18:51;99083.13;;;25.37;50.20
79129;BME280;68529;43.286;23.360;2023-07-13T01:21:16;99095.25;;;25.41;49.56
79129;BME280;68529;43.286;23.360;2023-07-13T01:23:44;99080.66;;;25.43;49.36
79129;BME280;68529;43.286;23.360;2023-07-13T01:26:10;99090.03;;;25.39;49.42
79129;BME280;68529;43.286;23.360;2023-07-13T01:28:36;99094.31;;;25.32;49.12
79129;BME280;68529;43.286;23.360;2023-07-13T01:31:02;99094.00;;;25.35;49.69
79129;BME280;68529;43.286;23.360;2023-07-13T01:33:27;99095.25;;;25.41;49.49
79129;BME280;68529;43.286;23.360;2023-07-13T01:35:53;99100.09;;;25.37;49.25
79129;BME280;68529;43.286;23.360;2023-07-13T01:38:20;99093.22;;;25.25;49.62
79129;BME280;68529;43.286;23.360;2023-07-13T01:40:46;99098.72;;;25.24;50.31
79129;BME280;68529;43.286;23.360;2023-07-13T01:43:12;99098.00;;;25.31;50.77
79129;BME280;68529;43.286;23.360;2023-07-13T01:45:38;99104.16;;;25.41;51.17
79129;BME280;68529;43.286;23.360;2023-07-13T01:48:04;99093.97;;;25.45;50.44
79129;BME280;68529;43.286;23.360;2023-07-13T01:50:32;99090.59;;;25.43;50.32
79129;BME280;68529;43.286;23.360;2023-07-13T01:52:57;99101.47;;;25.41;50.59
79129;BME280;68529;43.286;23.360;2023-07-13T01:55:23;99100.50;;;25.42;50.34
79129;BME280;68529;43.286;23.360;2023-07-13T01:57:48;99104.47;;;25.38;50.04
79129;BME280;68529;43.286;23.360;2023-07-13T02:00:14;99097.16;;;25.31;50.33
79129;BME280;68529;43.286;23.360;2023-07-13T02:02:40;99100.31;;;25.26;50.25
79129;BME280;68529;43.286;23.360;2023-07-13T02:05:06;99099.88;;;25.21;50.09
79129;BME280;68529;43.286;23.360;2023-07-13T02:07:31;99097.81;;;25.15;50.02
79129;BME280;68529;43.286;23.360;2023-07-13T02:09:57;99096.31;;;24.94;49.97
79129;BME280;68529;43.286;23.360;2023-07-13T02:12:22;99093.19;;;24.98;50.32
79129;BME280;68529;43.286;23.360;2023-07-13T02:14:48;99093.19;;;24.98;50.31
79129;BME280;68529;43.286;23.360;2023-07-13T02:17:13;99090.06;;;25.03;50.25
79129;BME280;68529;43.286;23.360;2023-07-13T02:19:39;99089.22;;;25.02;50.52
79129;BME280;68529;43.286;23.360;2023-07-13T02:22:05;99093.59;;;25.03;50.59
79129;BME280;68529;43.286;23.360;2023-07-13T02:24:30;99091.59;;;25.05;50.76
79129;BME280;68529;43.286;23.360;2023-07-13T02:26:56;99092.91;;;25.01;50.44
79129;BME280;68529;43.286;23.360;2023-07-13T02:29:21;99096.41;;;25.02;51.02
79129;BME280;68529;43.286;23.360;2023-07-13T02:31:46;99095.13;;;25.06;50.99
79129;BME280;68529;43.286;23.360;2023-07-13T02:34:12;99102.22;;;25.07;50.61
79129;BME280;68529;43.286;23.360;2023-07-13T02:36:38;99100.53;;;25.06;51.08
79129;BME280;68529;43.286;23.360;2023-07-13T02:39:05;99102.34;;;25.05;51.04
79129;BME280;68529;43.286;23.360;2023-07-13T02:41:30;99097.28;;;25.02;50.83
79129;BME280;68529;43.286;23.360;2023-07-13T02:43:57;99098.56;;;24.98;50.69
79129;BME280;68529;43.286;23.360;2023-07-13T02:46:29;99109.56;;;25.05;51.06
79129;BME280;68529;43.286;23.360;2023-07-13T02:48:54;99106.06;;;25.04;50.77
79129;BME280;68529;43.286;23.360;2023-07-13T02:51:19;99111.84;;;25.00;50.72
79129;BME280;68529;43.286;23.360;2023-07-13T02:53:45;99105.50;;;25.01;50.67
79129;BME280;68529;43.286;23.360;2023-07-13T02:56:10;99105.63;;;24.99;50.92
79129;BME280;68529;43.286;23.360;2023-07-13T02:58:35;99098.41;;;25.00;50.70
79129;BME280;68529;43.286;23.360;2023-07-13T03:01:07;99106.63;;;24.98;50.95
79129;BME280;68529;43.286;23.360;2023-07-13T03:03:33;99106.19;;;25.03;50.90
79129;BME280;68529;43.286;23.360;2023-07-13T03:06:04;99110.56;;;25.04;50.93
79129;BME280;68529;43.286;23.360;2023-07-13T03:08:32;99114.03;;;24.86;50.46
79129;BME280;68529;43.286;23.360;2023-07-13T03:11:05;99107.81;;;24.86;50.86
79129;BME280;68529;43.286;23.360;2023-07-13T03:13:31;99123.06;;;24.85;50.76
79129;BME280;68529;43.286;23.360;2023-07-13T03:15:57;99124.38;;;24.81;50.42
79129;BME280;68529;43.286;23.360;2023-07-13T03:18:23;99116.84;;;24.66;50.48
79129;BME280;68529;43.286;23.360;2023-07-13T03:20:52;99113.88;;;24.69;50.89
79129;BME280;68529;43.286;23.360;2023-07-13T03:23:18;99116.31;;;24.81;50.62
79129;BME280;68529;43.286;23.360;2023-07-13T03:25:44;99117.56;;;24.87;50.84
79129;BME280;68529;43.286;23.360;2023-07-13T03:28:10;99120.66;;;24.92;50.77
79129;BME280;68529;43.286;23.360;2023-07-13T03:30:36;99114.69;;;24.98;50.74
79129;BME280;68529;43.286;23.360;2023-07-13T03:33:01;99115.78;;;25.05;50.95
79129;BME280;68529;43.286;23.360;2023-07-13T03:35:27;99114.06;;;25.14;50.89
79129;BME280;68529;43.286;23.360;2023-07-13T03:37:52;99118.00;;;25.19;50.64
79129;BME280;68529;43.286;23.360;2023-07-13T03:40:18;99117.56;;;25.24;50.93
79129;BME280;68529;43.286;23.360;2023-07-13T03:42:43;99114.72;;;25.25;51.14
79129;BME280;68529;43.286;23.360;2023-07-13T03:45:09;99118.09;;;25.27;51.33
79129;BME280;68529;43.286;23.360;2023-07-13T03:47:34;99120.78;;;25.27;51.49
79129;BME280;68529;43.286;23.360;2023-07-13T03:49:59;99117.81;;;25.30;51.42
79129;BME280;68529;43.286;23.360;2023-07-13T03:52:25;99119.53;;;25.31;51.50
79129;BME280;68529;43.286;23.360;2023-07-13T03:54:50;99122.72;;;25.35;51.31
79129;BME280;68529;43.286;23.360;2023-07-13T03:57:16;99127.00;;;25.37;50.94
79129;BME280;68529;43.286;23.360;2023-07-13T03:59:41;99129.22;;;25.42;51.34
79129;BME280;68529;43.286;23.360;2023-07-13T04:02:07;99121.44;;;25.49;51.31
79129;BME280;68529;43.286;23.360;2023-07-13T04:04:32;99122.28;;;25.49;51.16
79129;BME280;68529;43.286;23.360;2023-07-13T04:06:58;99133.59;;;25.53;51.21
79129;BME280;68529;43.286;23.360;2023-07-13T04:09:24;99135.28;;;25.54;51.20
79129;BME280;68529;43.286;23.360;2023-07-13T04:11:50;99134.28;;;25.55;51.25
79129;BME280;68529;43.286;23.360;2023-07-13T04:14:16;99139.63;;;25.64;51.70
79129;BME280;68529;43.286;23.360;2023-07-13T04:16:41;99140.84;;;25.70;52.21
79129;BME280;68529;43.286;23.360;2023-07-13T04:19:08;99144.50;;;25.78;51.99
79129;BME280;68529;43.286;23.360;2023-07-13T04:21:35;99144.44;;;25.88;51.92
79129;BME280;68529;43.286;23.360;2023-07-13T04:24:01;99143.13;;;25.92;52.12
79129;BME280;68529;43.286;23.360;2023-07-13T04:26:28;99137.81;;;26.00;51.87
79129;BME280;68529;43.286;23.360;2023-07-13T04:28:53;99148.84;;;26.07;52.10
79129;BME280;68529;43.286;23.360;2023-07-13T04:31:19;99131.22;;;26.12;52.12
79129;BME280;68529;43.286;23.360;2023-07-13T04:33:44;99140.69;;;26.16;51.81
79129;BME280;68529;43.286;23.360;2023-07-13T04:36:10;99143.50;;;26.24;51.83
79129;BME280;68529;43.286;23.360;2023-07-13T04:38:36;99137.41;;;26.22;51.87
79129;BME280;68529;43.286;23.360;2023-07-13T04:41:06;99138.69;;;26.36;52.00
79129;BME280;68529;43.286;23.360;2023-07-13T04:43:32;99141.88;;;26.49;52.11
79129;BME280;68529;43.286;23.360;2023-07-13T04:46:03;99131.34;;;26.63;51.77
79129;BME280;68529;43.286;23.360;2023-07-13T04:48:29;99140.59;;;26.79;51.93
79129;BME280;68529;43.286;23.360;2023-07-13T04:50:56;99137.34;;;26.93;52.14
79129;BME280;68529;43.286;23.360;2023-07-13T04:53:22;99136.72;;;26.99;51.77
79129;BME280;68529;43.286;23.360;2023-07-13T04:55:48;99134.59;;;27.10;52.06
79129;BME280;68529;43.286;23.360;2023-07-13T04:58:13;99132.78;;;27.19;51.53
79129;BME280;68529;43.286;23.360;2023-07-13T05:00:39;99134.34;;;27.30;51.93
79129;BME280;68529;43.286;23.360;2023-07-13T05:03:05;99133.59;;;27.45;52.01
79129;BME280;68529;43.286;23.360;2023-07-13T05:05:31;99136.69;;;27.58;52.02
79129;BME280;68529;43.286;23.360;2023-07-13T05:07:56;99133.69;;;27.69;51.83
79129;BME280;68529;43.286;23.360;2023-07-13T05:10:22;99130.34;;;27.75;51.69
79129;BME280;68529;43.286;23.360;2023-07-13T05:12:48;99129.34;;;27.85;51.48
79129;BME280;68529;43.286;23.360;2023-07-13T05:15:13;99135.44;;;27.95;51.86
79129;BME280;68529;43.286;23.360;2023-07-13T05:17:39;99132.75;;;27.95;51.24
79129;BME280;68529;43.286;23.360;2023-07-13T05:20:07;99138.00;;;27.96;52.03
79129;BME280;68529;43.286;23.360;2023-07-13T05:22:32;99139.22;;;28.10;52.26
79129;BME280;68529;43.286;23.360;2023-07-13T05:25:00;99136.88;;;28.15;52.40
79129;BME280;68529;43.286;23.360;2023-07-13T05:27:26;99134.56;;;28.28;51.98
79129;BME280;68529;43.286;23.360;2023-07-13T05:29:51;99133.84;;;28.42;51.59
79129;BME280;68529;43.286;23.360;2023-07-13T05:32:18;99136.91;;;28.55;52.10
79129;BME280;68529;43.286;23.360;2023-07-13T05:34:43;99144.72;;;28.66;51.12
79129;BME280;68529;43.286;23.360;2023-07-13T05:37:08;99144.72;;;28.74;52.09
79129;BME280;68529;43.286;23.360;2023-07-13T05:39:34;99145.53;;;28.83;51.49
79129;BME280;68529;43.286;23.360;2023-07-13T05:42:00;99152.97;;;28.89;51.39
79129;BME280;68529;43.286;23.360;2023-07-13T05:44:25;99159.22;;;28.89;52.30
79129;BME280;68529;43.286;23.360;2023-07-13T05:46:51;99162.06;;;29.04;52.74
79129;BME280;68529;43.286;23.360;2023-07-13T05:49:16;99156.97;;;29.09;53.01
79129;BME280;68529;43.286;23.360;2023-07-13T05:51:41;99164.75;;;29.12;52.44
79129;BME280;68529;43.286;23.360;2023-07-13T05:54:07;99166.97;;;29.17;52.40
79129;BME280;68529;43.286;23.360;2023-07-13T05:56:32;99169.00;;;29.23;52.69
79129;BME280;68529;43.286;23.360;2023-07-13T05:58:58;99172.00;;;29.36;52.91
79129;BME280;68529;43.286;23.360;2023-07-13T06:01:23;99170.63;;;29.48;52.80
79129;BME280;68529;43.286;23.360;2023-07-13T06:03:49;99171.25;;;29.58;52.01
79129;BME280;68529;43.286;23.360;2023-07-13T06:06:15;99180.50;;;29.72;50.89
79129;BME280;68529;43.286;23.360;2023-07-13T06:08:41;99168.66;;;29.73;50.81
79129;BME280;68529;43.286;23.360;2023-07-13T06:11:14;99175.41;;;29.77;51.16
79129;BME280;68529;43.286;23.360;2023-07-13T06:13:40;99166.41;;;29.92;51.96
79129;BME280;68529;43.286;23.360;2023-07-13T06:16:06;99166.66;;;30.06;51.49
79129;BME280;68529;43.286;23.360;2023-07-13T06:18:33;99164.75;;;30.14;51.44
79129;BME280;68529;43.286;23.360;2023-07-13T06:20:58;99162.78;;;30.31;51.11
79129;BME280;68529;43.286;23.360;2023-07-13T06:23:24;99168.31;;;30.45;50.02
79129;BME280;68529;43.286;23.360;2023-07-13T06:25:50;99165.31;;;30.55;48.49
79129;BME280;68529;43.286;23.360;2023-07-13T06:28:16;99166.59;;;30.67;49.32
79129;BME280;68529;43.286;23.360;2023-07-13T06:30:41;99159.97;;;30.70;49.92
79129;BME280;68529;43.286;23.360;2023-07-13T06:33:07;99159.41;;;30.74;50.87
79129;BME280;68529;43.286;23.360;2023-07-13T06:35:32;99151.66;;;30.86;51.41
79129;BME280;68529;43.286;23.360;2023-07-13T06:37:57;99153.44;;;31.01;50.70
79129;BME280;68529;43.286;23.360;2023-07-13T06:40:23;99147.34;;;31.14;49.52
79129;BME280;68529;43.286;23.360;2023-07-13T06:42:48;99137.25;;;31.23;50.16
79129;BME280;68529;43.286;23.360;2023-07-13T06:45:14;99143.72;;;31.36;49.12
79129;BME280;68529;43.286;23.360;2023-07-13T06:47:39;99126.47;;;31.44;49.21
79129;BME280;68529;43.286;23.360;2023-07-13T06:50:05;99133.78;;;31.43;50.56
79129;BME280;68529;43.286;23.360;2023-07-13T06:52:31;99124.34;;;31.54;50.19
79129;BME280;68529;43.286;23.360;2023-07-13T06:54:56;99131.16;;;31.64;50.26
79129;BME280;68529;43.286;23.360;2023-07-13T06:57:21;99126.47;;;31.73;50.62
79129;BME280;68529;43.286;23.360;2023-07-13T06:59:47;99128.06;;;31.82;49.40
79129;BME280;68529;43.286;23.360;2023-07-13T07:02:13;99124.47;;;31.96;48.84
79129;BME280;68529;43.286;23.360;2023-07-13T07:04:38;99118.94;;;32.04;48.28
79129;BME280;68529;43.286;23.360;2023-07-13T07:07:04;99115.72;;;32.15;49.11
79129;BME280;68529;43.286;23.360;2023-07-13T07:09:29;99112.47;;;32.26;47.64
79129;BME280;68529;43.286;23.360;2023-07-13T07:11:56;99105.47;;;32.39;49.05
79129;BME280;68529;43.286;23.360;2023-07-13T07:14:22;99108.31;;;32.52;48.72
79129;BME280;68529;43.286;23.360;2023-07-13T07:16:47;99102.84;;;32.66;47.46
79129;BME280;68529;43.286;23.360;2023-07-13T07:19:13;99106.91;;;32.77;47.85
79129;BME280;68529;43.286;23.360;2023-07-13T07:21:38;99105.69;;;32.86;45.69
79129;BME280;68529;43.286;23.360;2023-07-13T07:24:04;99105.75;;;32.93;42.38
79129;BME280;68529;43.286;23.360;2023-07-13T07:26:31;99111.25;;;32.99;44.12
79129;BME280;68529;43.286;23.360;2023-07-13T07:28:56;99103.41;;;33.11;42.95
79129;BME280;68529;43.286;23.360;2023-07-13T07:31:22;99099.66;;;33.18;43.30
79129;BME280;68529;43.286;23.360;2023-07-13T07:33:47;99100.13;;;33.28;44.69
79129;BME280;68529;43.286;23.360;2023-07-13T07:36:15;99098.53;;;33.40;44.49
79129;BME280;68529;43.286;23.360;2023-07-13T07:38:41;99094.78;;;33.48;43.80
79129;BME280;68529;43.286;23.360;2023-07-13T07:41:07;99099.66;;;33.53;45.11
79129;BME280;68529;43.286;23.360;2023-07-13T07:43:32;99101.81;;;33.64;45.42
79129;BME280;68529;43.286;23.360;2023-07-13T07:45:58;99109.63;;;33.80;46.94
79129;BME280;68529;43.286;23.360;2023-07-13T07:48:23;99091.00;;;33.90;45.11
79129;BME280;68529;43.286;23.360;2023-07-13T07:50:49;99100.69;;;33.99;44.88
79129;BME280;68529;43.286;23.360;2023-07-13T07:53:14;99088.31;;;34.03;45.21
79129;BME280;68529;43.286;23.360;2023-07-13T07:55:39;99089.56;;;34.07;44.71
79129;BME280;68529;43.286;23.360;2023-07-13T07:58:05;99096.34;;;34.11;44.76
79129;BME280;68529;43.286;23.360;2023-07-13T08:00:31;99094.25;;;34.13;45.41
79129;BME280;68529;43.286;23.360;2023-07-13T08:02:58;99098.69;;;34.27;43.67
79129;BME280;68529;43.286;23.360;2023-07-13T08:05:23;99098.91;;;34.39;42.43
79129;BME280;68529;43.286;23.360;2023-07-13T08:07:49;99109.59;;;34.53;42.75
79129;BME280;68529;43.286;23.360;2023-07-13T08:10:15;99119.50;;;34.68;41.53
79129;BME280;68529;43.286;23.360;2023-07-13T08:12:40;99129.59;;;34.80;39.68
79129;BME280;68529;43.286;23.360;2023-07-13T08:15:10;99140.06;;;34.90;38.97
79129;BME280;68529;43.286;23.360;2023-07-13T08:17:36;99129.56;;;35.00;35.40
79129;BME280;68529;43.286;23.360;2023-07-13T08:20:01;99142.59;;;35.04;35.71
79129;BME280;68529;43.286;23.360;2023-07-13T08:22:27;99141.34;;;35.14;37.43
79129;BME280;68529;43.286;23.360;2023-07-13T08:24:53;99145.13;;;35.26;35.88
79129;BME280;68529;43.286;23.360;2023-07-13T08:27:22;99141.94;;;35.35;37.22
79129;BME280;68529;43.286;23.360;2023-07-13T08:29:48;99148.00;;;35.44;36.33
79129;BME280;68529;43.286;23.360;2023-07-13T08:32:14;99139.44;;;35.34;35.62
79129;BME280;68529;43.286;23.360;2023-07-13T08:34:40;99151.81;;;35.30;35.37
79129;BME280;68529;43.286;23.360;2023-07-13T08:37:06;99145.50;;;35.29;35.39
79129;BME280;68529;43.286;23.360;2023-07-13T08:39:32;99151.81;;;35.30;34.59
79129;BME280;68529;43.286;23.360;2023-07-13T08:47:46;99156.41;;;35.62;34.87
79129;BME280;68529;43.286;23.360;2023-07-13T08:50:15;99155.16;;;35.58;34.93
79129;BME280;68529;43.286;23.360;2023-07-13T08:52:43;99155.78;;;35.53;34.43
79129;BME280;68529;43.286;23.360;2023-07-13T08:55:16;99155.13;;;35.51;33.34
79129;BME280;68529;43.286;23.360;2023-07-13T08:57:44;99150.50;;;35.52;34.52
79129;BME280;68529;43.286;23.360;2023-07-13T09:00:12;99151.31;;;35.65;35.59
79129;BME280;68529;43.286;23.360;2023-07-13T09:02:54;99153.63;;;35.75;34.86
79129;BME280;68529;43.286;23.360;2023-07-13T09:05:28;99157.75;;;35.91;35.33
79129;BME280;68529;43.286;23.360;2023-07-13T09:08:04;99150.81;;;35.95;35.21
79129;BME280;68529;43.286;23.360;2023-07-13T09:10:48;99157.97;;;35.96;36.04
79129;BME280;68529;43.286;23.360;2023-07-13T09:13:39;99155.59;;;36.12;35.29
79129;BME280;68529;43.286;23.360;2023-07-13T09:16:09;99151.56;;;36.15;33.99
79129;BME280;68529;43.286;23.360;2023-07-13T09:18:40;99156.19;;;36.21;33.85
79129;BME280;68529;43.286;23.360;2023-07-13T09:23:39;99159.94;;;36.27;32.63
79129;BME280;68529;43.286;23.360;2023-07-13T09:26:22;99164.16;;;36.22;33.19
79129;BME280;68529;43.286;23.360;2023-07-13T09:28:55;99154.41;;;36.33;34.48
79129;BME280;68529;43.286;23.360;2023-07-13T09:31:42;99143.34;;;36.46;34.69
79129;BME280;68529;43.286;23.360;2023-07-13T09:34:11;99145.44;;;36.57;32.65
79129;BME280;68529;43.286;23.360;2023-07-13T09:36:37;99146.25;;;36.58;32.59
79129;BME280;68529;43.286;23.360;2023-07-13T09:39:25;99141.22;;;36.55;31.17
79129;BME280;68529;43.286;23.360;2023-07-13T09:44:38;99149.25;;;36.56;32.01
79129;BME280;68529;43.286;23.360;2023-07-13T09:47:16;99156.44;;;36.44;31.50
79129;BME280;68529;43.286;23.360;2023-07-13T09:49:41;99149.84;;;36.58;32.93
79129;BME280;68529;43.286;23.360;2023-07-13T09:52:12;99145.94;;;36.72;33.29
79129;BME280;68529;43.286;23.360;2023-07-13T09:54:39;99136.31;;;36.88;32.08
79129;BME280;68529;43.286;23.360;2023-07-13T09:57:34;99137.97;;;36.96;32.95
79129;BME280;68529;43.286;23.360;2023-07-13T09:59:59;99129.19;;;36.87;32.44
79129;BME280;68529;43.286;23.360;2023-07-13T10:02:29;99128.84;;;36.77;31.53
79129;BME280;68529;43.286;23.360;2023-07-13T10:05:06;99123.75;;;36.81;33.72
79129;BME280;68529;43.286;23.360;2023-07-13T10:07:38;99119.13;;;37.06;32.61
79129;BME280;68529;43.286;23.360;2023-07-13T10:10:16;99105.28;;;37.19;31.54
79129;BME280;68529;43.286;23.360;2023-07-13T10:12:41;99109.41;;;37.10;31.04
79129;BME280;68529;43.286;23.360;2023-07-13T10:15:13;99107.19;;;36.94;29.76
79129;BME280;68529;43.286;23.360;2023-07-13T10:17:39;99110.75;;;37.01;30.07
79129;BME280;68529;43.286;23.360;2023-07-13T10:20:05;99103.16;;;37.03;29.86
79129;BME280;68529;43.286;23.360;2023-07-13T10:25:21;99097.56;;;37.34;30.59
79129;BME280;68529;43.286;23.360;2023-07-13T10:27:50;99086.59;;;37.34;30.85
79129;BME280;68529;43.286;23.360;2023-07-13T10:30:27;99082.31;;;37.20;30.09
79129;BME280;68529;43.286;23.360;2023-07-13T10:32:58;99077.84;;;37.07;30.56
79129;BME280;68529;43.286;23.360;2023-07-13T10:35:24;99085.22;;;37.07;31.44
79129;BME280;68529;43.286;23.360;2023-07-13T10:38:02;99080.56;;;37.07;31.18
79129;BME280;68529;43.286;23.360;2023-07-13T10:40:37;99082.84;;;37.28;32.31
79129;BME280;68529;43.286;23.360;2023-07-13T10:43:12;99080.19;;;37.40;29.48
79129;BME280;68529;43.286;23.360;2023-07-13T10:45:40;99076.97;;;37.25;30.57
79129;BME280;68529;43.286;23.360;2023-07-13T10:48:09;99072.81;;;37.22;31.14
79129;BME280;68529;43.286;23.360;2023-07-13T10:50:40;99066.81;;;37.32;31.67
79129;BME280;68529;43.286;23.360;2023-07-13T10:53:28;99058.09;;;37.17;28.83
79129;BME280;68529;43.286;23.360;2023-07-13T10:56:19;99054.84;;;37.08;30.23
79129;BME280;68529;43.286;23.360;2023-07-13T10:59:46;99055.22;;;37.12;31.18
79129;BME280;68529;43.286;23.360;2023-07-13T11:02:01;99053.94;;;37.14;29.90
79129;BME280;68529;43.286;23.360;2023-07-13T11:04:43;99046.41;;;37.10;28.98
79129;BME280;68529;43.286;23.360;2023-07-13T11:07:18;99035.97;;;37.18;30.88
79129;BME280;68529;43.286;23.360;2023-07-13T11:09:49;99029.44;;;37.01;29.80
79129;BME280;68529;43.286;23.360;2023-07-13T11:22:53;99023.78;;;37.32;29.64
79129;BME280;68529;43.286;23.360;2023-07-13T11:25:35;99016.28;;;37.46;30.32
79129;BME280;68529;43.286;23.360;2023-07-13T11:28:16;99009.25;;;37.50;29.71
79129;BME280;68529;43.286;23.360;2023-07-13T11:30:49;99012.75;;;37.57;30.31
79129;BME280;68529;43.286;23.360;2023-07-13T11:36:07;99001.91;;;37.62;29.99
79129;BME280;68529;43.286;23.360;2023-07-13T11:38:55;99001.25;;;37.30;29.50
79129;BME280;68529;43.286;23.360;2023-07-13T11:41:30;99002.84;;;37.38;30.72
79129;BME280;68529;43.286;23.360;2023-07-13T11:44:20;98992.34;;;37.53;30.47
79129;BME280;68529;43.286;23.360;2023-07-13T11:46:54;98979.22;;;37.55;31.54
79129;BME280;68529;43.286;23.360;2023-07-13T11:49:22;98989.25;;;37.61;30.79
79129;BME280;68529;43.286;23.360;2023-07-13T11:51:48;98980.56;;;37.64;30.53
79129;BME280;68529;43.286;23.360;2023-07-13T11:56:55;98977.56;;;37.54;30.42
79129;BME280;68529;43.286;23.360;2023-07-13T11:59:23;98972.31;;;37.53;30.19
79129;BME280;68529;43.286;23.360;2023-07-13T12:01:51;98970.03;;;37.50;30.80
79129;BME280;68529;43.286;23.360;2023-07-13T12:04:28;98962.50;;;37.45;30.04
79129;BME280;68529;43.286;23.360;2023-07-13T12:07:04;98972.63;;;37.45;30.54
79129;BME280;68529;43.286;23.360;2023-07-13T12:09:30;98970.41;;;37.53;30.86
79129;BME280;68529;43.286;23.360;2023-07-13T12:11:57;98966.50;;;37.61;31.74
79129;BME280;68529;43.286;23.360;2023-07-13T12:14:25;98970.31;;;37.60;32.37
79129;BME280;68529;43.286;23.360;2023-07-13T12:16:52;98967.34;;;37.61;32.70
79129;BME280;68529;43.286;23.360;2023-07-13T12:19:22;98961.25;;;37.59;32.73
79129;BME280;68529;43.286;23.360;2023-07-13T12:21:48;98960.78;;;37.62;32.47
79129;BME280;68529;43.286;23.360;2023-07-13T12:24:19;98961.63;;;37.63;32.52
79129;BME280;68529;43.286;23.360;2023-07-13T12:26:54;98956.84;;;37.58;32.81
79129;BME280;68529;43.286;23.360;2023-07-13T12:29:21;98955.63;;;37.54;33.61
79129;BME280;68529;43.286;23.360;2023-07-13T12:31:48;98954.56;;;37.55;33.12
79129;BME280;68529;43.286;23.360;2023-07-13T12:34:20;98954.72;;;37.60;33.46
79129;BME280;68529;43.286;23.360;2023-07-13T12:39:16;98951.00;;;37.66;33.78
79129;BME280;68529;43.286;23.360;2023-07-13T12:41:42;98948.13;;;37.61;33.58
79129;BME280;68529;43.286;23.360;2023-07-13T12:44:18;98951.81;;;37.55;32.42
79129;BME280;68529;43.286;23.360;2023-07-13T12:47:06;98945.22;;;37.45;33.16
79129;BME280;68529;43.286;23.360;2023-07-13T12:49:41;98946.97;;;37.39;32.74
79129;BME280;68529;43.286;23.360;2023-07-13T12:52:15;98941.13;;;37.36;32.87
79129;BME280;68529;43.286;23.360;2023-07-13T12:54:41;98938.84;;;37.32;32.94
79129;BME280;68529;43.286;23.360;2023-07-13T12:57:14;98941.66;;;37.26;32.78
79129;BME280;68529;43.286;23.360;2023-07-13T12:59:42;98935.06;;;37.15;32.10
79129;BME280;68529;43.286;23.360;2023-07-13T13:02:30;98937.19;;;37.13;33.97
79129;BME280;68529;43.286;23.360;2023-07-13T13:04:57;98937.44;;;37.12;32.30
79129;BME280;68529;43.286;23.360;2023-07-13T13:07:24;98925.88;;;37.10;32.83
79129;BME280;68529;43.286;23.360;2023-07-13T13:09:49;98931.94;;;37.12;33.16
79129;BME280;68529;43.286;23.360;2023-07-13T13:12:14;98920.97;;;37.12;33.74
79129;BME280;68529;43.286;23.360;2023-07-13T13:14:42;98929.06;;;37.07;34.17
79129;BME280;68529;43.286;23.360;2023-07-13T13:17:25;98927.00;;;37.02;33.15
79129;BME280;68529;43.286;23.360;2023-07-13T13:19:52;98931.88;;;37.00;33.28
79129;BME280;68529;43.286;23.360;2023-07-13T13:22:21;98929.38;;;36.99;34.59
79129;BME280;68529;43.286;23.360;2023-07-13T13:24:46;98924.75;;;36.99;35.00
79129;BME280;68529;43.286;23.360;2023-07-13T13:27:19;98917.78;;;36.97;34.76